Anchor, Texas
Current Conditions -  °F | °C
As of 6:53 AM on Saturday 20 Dec 2014 (Local Time) from KLBX Reporting Station
Overcast Overcast  
Wind Chill: 50°   Ceiling: 600
Heat Index: 50°   Visibility: 10mi
Dew Point: 50°   Wind: 13mph
Humidity: 100%   Direction: 30°NNE
Pressure: 30.16"   Gusts: NA
Location:  29.1898°N, 95.4754°W
Report Text: KLBX 201253Z AUTO 03011KT 10SM OVC006 10/10 A3016 RMK AO2 SLP213 T01000100
Loading
Personal Weather Stations






























Interactive Weather Map New forecast layout! Learn more

10-Day Weather Forecast

Advertisements
Track Severe Weather on mobile